WetterOnline ( https://www.wetteronline.de )

Wetter aktuell Hinte

Aktuelles Wetter: Emden (5m)

6-stündlich | Neueste Meldungen
Ortszeit Temperatur Wetter
So, 20.10. 2:00 10.6° C wolkig
Sa, 19.10. 20:00 11.9° C bedeckt
Sa, 19.10. 14:00 11.2° C Sprühregen
Sa, 19.10. 8:00 10.4° C bedeckt
Sa, 19.10. 2:00 10.9° C bedeckt
Fr, 18.10. 20:00 12.0° C bewölkt
Fr, 18.10. 14:00 12.4° C Regen
Fr, 18.10. 8:00 12.3° C leichter Regen
Ortszeit Temperatur Wetter
So, 20.10. 2:30 10.6° C bewölkt
So, 20.10. 2:20 10.6° C bewölkt
So, 20.10. 2:10 10.6° C bewölkt
So, 20.10. 2:00 10.6° C wolkig
So, 20.10. 1:40 10.6° C bedeckt
So, 20.10. 1:30 10.8° C bedeckt
So, 20.10. 1:00 10.8° C bedeckt
So, 20.10. 0:30 11.0° C bedeckt
So, 20.10. 0:00 10.9° C bedeckt
Sa, 19.10. 23:30 11.2° C bedeckt
Ortszeit Relative Feuchte Sichtweite
So, 20.10. 2:00 94% 17 km
Sa, 19.10. 20:00 88% 55 km
Sa, 19.10. 14:00 93% 5.0 km
Sa, 19.10. 8:00 84% 50 km
Sa, 19.10. 2:00 78% 55 km
Fr, 18.10. 20:00 78% 55 km
Fr, 18.10. 14:00 94% 5.0 km
Fr, 18.10. 8:00 94% 15 km
Ortszeit Relative Feuchte Sichtweite
So, 20.10. 2:30 94% 17 km
So, 20.10. 2:20 94% -
So, 20.10. 2:10 94% -
So, 20.10. 2:00 94% 17 km
So, 20.10. 1:40 94% -
So, 20.10. 1:30 92% 25 km
So, 20.10. 1:00 93% 25 km
So, 20.10. 0:30 93% 21 km
So, 20.10. 0:00 92% 30 km
Sa, 19.10. 23:30 90% 35 km
Ortszeit Niederschlagsmenge Niederschlagsart
So, 20.10. 2:00 0.0 l/m2 in 6 Std. -
Sa, 19.10. 20:00 1 l/m2 in 12 Std. Regen
Sa, 19.10. 14:00 0.2 l/m2 in 6 Std. Regen
Sa, 19.10. 8:00 0.1 l/m2 in 12 Std. -
Sa, 19.10. 2:00 0.1 l/m2 in 6 Std. Regen
Fr, 18.10. 20:00 4 l/m2 in 12 Std. Regen
Fr, 18.10. 14:00 3 l/m2 in 6 Std. Regen
Fr, 18.10. 8:00 0.1 l/m2 in 12 Std. Regen
Ortszeit Niederschlagsmenge Niederschlagsart
So, 20.10. 2:30 0.0 l/m2 in 1 Std. -
So, 20.10. 2:20 keine Meldung -
So, 20.10. 2:10 keine Meldung -
So, 20.10. 2:00 0.0 l/m2 in 1 Std. -
So, 20.10. 1:40 keine Meldung -
So, 20.10. 1:30 0.0 l/m2 in 1 Std. -
So, 20.10. 1:00 0.0 l/m2 in 1 Std. -
So, 20.10. 0:30 0.0 l/m2 in 1 Std. -
So, 20.10. 0:00 0.0 l/m2 in 1 Std. -
Sa, 19.10. 23:30 0.0 l/m2 in 1 Std. -
Ortszeit Stärke Spitze Richtung
km/h Bft. km/h Grad Sektor
So, 20.10. 2:00 13 3 26 190° S
Sa, 19.10. 20:00 9 2 31 190° S
Sa, 19.10. 14:00 13 3 37 200° S
Sa, 19.10. 8:00 18 3 40 180° S
Sa, 19.10. 2:00 18 3 43 190° S
Fr, 18.10. 20:00 22 4 59 200° S
Fr, 18.10. 14:00 26 4 44 210° SW
Fr, 18.10. 8:00 18 3 29 160° S
Ortszeit Stärke Spitze Richtung
km/h Bft. km/h Grad Sektor
So, 20.10. 2:30 13 3 24 200° S
So, 20.10. 2:20 13 3 - 200° S
So, 20.10. 2:10 13 3 - 190° S
So, 20.10. 2:00 13 3 22 190° S
So, 20.10. 1:40 14 3 - 190° S
So, 20.10. 1:30 13 3 20 190° S
So, 20.10. 1:00 17 3 26 200° S
So, 20.10. 0:30 11 2 25 190° S
So, 20.10. 0:00 14 3 22 190° S
Sa, 19.10. 23:30 13 3 20 190° S
Ortszeit Untergrenze Bedeckung Gattung
total tief tief mittel hoch
So, 20.10. 2:00 2100 m 8/8 2/8 - - -
Sa, 19.10. 20:00 5400 m 8/8 8/8 - - -
Sa, 19.10. 14:00 270 m 8/8 8/8 - - -
Sa, 19.10. 8:00 3000 m 8/8 8/8 - - -
Sa, 19.10. 2:00 6900 m 8/8 8/8 - - -
Fr, 18.10. 20:00 1800 m 8/8 4/8 - - -
Fr, 18.10. 14:00 570 m 7/8 7/8 - - -
Fr, 18.10. 8:00 480 m 8/8 2/8 - - -
Ortszeit Bedeckungsgrad in Achtel und Wolkenuntergrenze
So, 20.10. 2:30 7(2100m) 7(5100m) 8(6000m)
So, 20.10. 2:20 7(2100m) 7(5100m) 8(6000m)
So, 20.10. 2:10 6(2100m) 8(6600m) 8(8400m)
So, 20.10. 2:00 2(2100m) 8(6900m) 8(8400m)
So, 20.10. 1:40 6(5100m) 8(6900m)
So, 20.10. 1:30 5(5400m) 7(6300m) 8(6900m)
So, 20.10. 1:00 3(5100m) 8(6600m) 8(8700m)
So, 20.10. 0:30 1(5400m) 8(6600m) 8(7800m)
So, 20.10. 0:00 3(5400m) 8(6300m) 8(7800m)
Sa, 19.10. 23:30 7(5400m) 8(6600m)
Ortszeit Luftdruck NN (hPa) Tendenz (hPa in 3 Std.)
So, 20.10. 2:00 1006 + 0,9
Sa, 19.10. 20:00 1004 + 1,2
Sa, 19.10. 14:00 1003 - 0,2
Sa, 19.10. 8:00 1003 - 0,6
Sa, 19.10. 2:00 1004 + 0,1
Fr, 18.10. 20:00 1003 + 2,2
Fr, 18.10. 14:00 1000 - 2,8
Fr, 18.10. 8:00 1004 - 2,3
Ortszeit Luftdruck NN (hPa) Tendenz (hPa in 3 Std.)
So, 20.10. 2:30 1006 + 0,9
So, 20.10. 2:20 1006 keine Meldung
So, 20.10. 2:10 1006 keine Meldung
So, 20.10. 2:00 1006 + 0,9
So, 20.10. 1:40 1006 keine Meldung
So, 20.10. 1:30 1006 + 1,0
So, 20.10. 1:00 1006 + 1,0
So, 20.10. 0:30 1006 + 1,1
So, 20.10. 0:00 1006 + 1,4
Sa, 19.10. 23:30 1005 + 1,1
Ortszeit Schneehöhe (cm)
So, 20.10. 2:00 0
Sa, 19.10. 20:00 0
Sa, 19.10. 14:00 0
Sa, 19.10. 8:00 0
Sa, 19.10. 2:00 0
Fr, 18.10. 20:00 0
Fr, 18.10. 14:00 0
Fr, 18.10. 8:00 0
Ortszeit Schneehöhe (cm)
So, 20.10. 2:30 0
So, 20.10. 2:20 0
So, 20.10. 2:10 0
So, 20.10. 2:00 0
So, 20.10. 1:40 0
So, 20.10. 1:30 0
So, 20.10. 1:00 0
So, 20.10. 0:30 0
So, 20.10. 0:00 0
Sa, 19.10. 23:30 0
Link zu dieser Seite / Seite empfehlen

Das Wetter in ...